createdAt,value
2023-01-23T00:00:48.752Z,61
2023-01-23T00:02:50.439Z,63
2023-01-23T00:04:48.994Z,62
2023-01-23T00:06:49.302Z,61
2023-01-23T00:08:49.685Z,63
2023-01-23T00:10:54.268Z,63
2023-01-23T00:12:49.390Z,62
2023-01-23T00:14:51.799Z,64
2023-01-23T00:16:49.931Z,63
2023-01-23T00:18:49.683Z,64
2023-01-23T00:20:50.034Z,61
2023-01-23T00:22:49.897Z,58
2023-01-23T00:24:50.518Z,55
2023-01-23T00:26:50.097Z,53
2023-01-23T00:28:51.005Z,50
2023-01-23T00:30:50.413Z,48
2023-01-23T00:32:50.699Z,47
2023-01-23T00:34:52.493Z,47
2023-01-23T00:36:52.611Z,47
2023-01-23T00:38:50.703Z,46
2023-01-23T00:40:51.731Z,45
2023-01-23T00:42:52.134Z,46
2023-01-23T00:44:51.247Z,46
2023-01-23T00:46:51.289Z,51
2023-01-23T00:50:51.813Z,47
2023-01-23T00:52:51.649Z,41
2023-01-23T00:54:52.520Z,30
2023-01-23T00:56:51.819Z,24
2023-01-23T00:58:52.695Z,12
2023-01-23T01:00:52.230Z,8
2023-01-23T01:02:52.323Z,7
2023-01-23T01:04:53.275Z,7
2023-01-23T01:06:52.318Z,7
2023-01-23T01:08:52.174Z,6
2023-01-23T01:10:52.220Z,6
2023-01-23T01:12:53.681Z,6
2023-01-23T01:16:52.760Z,5
2023-01-23T01:18:53.637Z,6
2023-01-23T01:20:54.259Z,6
2023-01-23T01:22:52.814Z,6
2023-01-23T01:24:53.957Z,6
2023-01-23T01:26:52.968Z,6
2023-01-23T01:28:53.333Z,6
2023-01-23T01:30:53.271Z,6
2023-01-23T01:32:54.524Z,6
2023-01-23T01:34:53.628Z,6
2023-01-23T01:36:53.514Z,6
2023-01-23T01:40:53.997Z,6
2023-01-23T01:42:58.940Z,5
2023-01-23T01:46:53.981Z,14
2023-01-23T01:48:54.342Z,27
2023-01-23T01:50:54.165Z,32
2023-01-23T01:52:54.318Z,33
2023-01-23T01:54:54.344Z,31
2023-01-23T01:56:54.432Z,32
2023-01-23T01:58:54.591Z,32
2023-01-23T02:00:55.701Z,33
2023-01-23T02:02:54.708Z,34
2023-01-23T02:04:55.608Z,32
2023-01-23T02:06:55.133Z,33
2023-01-23T02:08:56.044Z,37
2023-01-23T02:10:55.087Z,36
2023-01-23T02:12:55.458Z,36
2023-01-23T02:14:55.783Z,38
2023-01-23T02:16:55.913Z,41
2023-01-23T02:18:55.728Z,46
2023-01-23T02:20:55.566Z,38
2023-01-23T02:22:55.700Z,36
2023-01-23T02:24:55.754Z,40
2023-01-23T02:26:56.398Z,39
2023-01-23T02:28:56.465Z,37
2023-01-23T02:30:56.085Z,35
2023-01-23T02:32:56.135Z,34
2023-01-23T02:34:56.263Z,28
2023-01-23T02:36:56.348Z,20
2023-01-23T02:39:01.420Z,17
2023-01-23T02:40:56.539Z,16
2023-01-23T02:42:56.859Z,12
2023-01-23T02:44:57.743Z,11
2023-01-23T02:46:56.792Z,10
2023-01-23T02:48:56.879Z,8
2023-01-23T02:50:57.000Z,8
2023-01-23T02:52:57.329Z,7
2023-01-23T02:54:57.147Z,7
2023-01-23T02:56:57.289Z,7
2023-01-23T02:58:57.380Z,7
2023-01-23T03:00:57.866Z,7
2023-01-23T03:02:57.535Z,7
2023-01-23T03:04:57.630Z,9
2023-01-23T03:06:57.724Z,9
2023-01-23T03:08:57.786Z,9
2023-01-23T03:10:58.148Z,8
2023-01-23T03:12:58.493Z,9
2023-01-23T03:14:58.345Z,7
2023-01-23T03:16:58.400Z,7
2023-01-23T03:18:58.511Z,8
2023-01-23T03:20:58.391Z,8
2023-01-23T03:22:59.494Z,7
2023-01-23T03:24:58.525Z,6
2023-01-23T03:26:58.633Z,6
2023-01-23T03:30:59.164Z,6
2023-01-23T03:34:58.996Z,6
2023-01-23T03:36:59.092Z,6
2023-01-23T03:38:59.155Z,6
2023-01-23T03:40:59.535Z,6
2023-01-23T03:43:02.540Z,6
2023-01-23T03:44:59.465Z,6
2023-01-23T03:46:59.531Z,6
2023-01-23T03:53:00.079Z,5
2023-01-23T03:54:59.936Z,5
2023-01-23T03:57:00.250Z,5
2023-01-23T03:59:00.113Z,5
2023-01-23T04:01:00.222Z,5
2023-01-23T04:03:00.427Z,5
2023-01-23T04:05:00.314Z,4
2023-01-23T04:07:00.401Z,5
2023-01-23T04:09:00.768Z,5
2023-01-23T04:11:00.572Z,5
2023-01-23T04:13:01.734Z,5
2023-01-23T04:15:00.761Z,4
2023-01-23T04:17:00.853Z,4
2023-01-23T04:19:01.029Z,5
2023-01-23T04:21:01.041Z,5
2023-01-23T04:23:01.167Z,5
2023-01-23T04:25:02.471Z,5
2023-01-23T04:29:01.364Z,5
2023-01-23T04:31:01.979Z,6
2023-01-23T04:33:02.095Z,5
2023-01-23T04:35:02.163Z,6
2023-01-23T04:37:03.059Z,6
2023-01-23T04:39:02.375Z,6
2023-01-23T04:41:02.170Z,5
2023-01-23T04:43:02.445Z,6
2023-01-23T04:45:02.082Z,5
2023-01-23T04:47:02.598Z,5
2023-01-23T04:49:32.488Z,5
2023-01-23T04:51:37.382Z,6
2023-01-23T04:53:32.464Z,5
2023-01-23T04:55:38.539Z,5
2023-01-23T04:57:32.970Z,6
2023-01-23T04:59:33.314Z,6
2023-01-23T05:01:34.040Z,6
2023-01-23T05:03:33.281Z,7
2023-01-23T05:05:34.750Z,7
2023-01-23T05:07:33.474Z,6
2023-01-23T05:09:34.869Z,7
2023-01-23T05:11:34.423Z,6
2023-01-23T05:13:33.580Z,6
2023-01-23T05:15:33.708Z,6
2023-01-23T05:17:34.763Z,6
2023-01-23T05:19:34.367Z,5
2023-01-23T05:21:34.004Z,5
2023-01-23T05:23:34.353Z,5
2023-01-23T05:25:34.474Z,5
2023-01-23T05:27:34.804Z,5
2023-01-23T05:40:41.000Z,5
2023-01-23T06:20:31.403Z,6
2023-01-23T06:37:57.477Z,7
2023-01-23T06:39:39.137Z,7
2023-01-23T06:39:39.726Z,6
2023-01-23T06:41:39.252Z,7
2023-01-23T06:43:39.362Z,6
2023-01-23T06:45:39.474Z,6
2023-01-23T06:47:39.562Z,6
2023-01-23T06:51:37.133Z,15
2023-01-23T06:53:36.744Z,19
2023-01-23T06:55:36.783Z,19
2023-01-23T06:57:36.901Z,9
2023-01-23T06:59:37.011Z,11
2023-01-23T07:01:37.123Z,10
2023-01-23T07:03:37.162Z,10
2023-01-23T07:05:37.294Z,10
2023-01-23T07:07:37.402Z,10
2023-01-23T07:09:37.473Z,9
2023-01-23T07:11:37.600Z,9
2023-01-23T07:13:37.656Z,9
2023-01-23T07:15:39.660Z,8
2023-01-23T07:19:37.990Z,8
2023-01-23T07:21:38.065Z,8
2023-01-23T07:23:38.165Z,8
2023-01-23T07:25:38.281Z,8
2023-01-23T07:29:38.579Z,8
2023-01-23T07:31:38.777Z,9
2023-01-23T07:33:38.775Z,13
2023-01-23T07:35:38.904Z,11
2023-01-23T07:37:38.991Z,10
2023-01-23T07:39:39.093Z,10
2023-01-23T07:41:41.401Z,10
2023-01-23T07:43:39.284Z,10
2023-01-23T07:45:39.438Z,11
2023-01-23T07:49:39.588Z,9
2023-01-23T07:51:39.697Z,8
2023-01-23T07:53:39.801Z,9
2023-01-23T07:55:39.923Z,10
2023-01-23T07:57:40.003Z,9
2023-01-23T07:59:40.081Z,10
2023-01-23T08:01:40.176Z,8
2023-01-23T08:03:40.317Z,8
2023-01-23T08:05:42.836Z,8
2023-01-23T08:07:40.474Z,7
2023-01-23T08:09:40.571Z,8
2023-01-23T08:11:40.677Z,11
2023-01-23T08:13:40.784Z,9
2023-01-23T08:15:40.870Z,12
2023-01-23T08:17:40.955Z,12
2023-01-23T08:19:41.148Z,10
2023-01-23T08:21:41.121Z,9
2023-01-23T08:23:41.274Z,8
2023-01-23T08:25:41.337Z,7
2023-01-23T08:27:41.416Z,8
2023-01-23T08:29:41.524Z,8
2023-01-23T08:31:41.640Z,9
2023-01-23T08:33:41.782Z,7
2023-01-23T08:35:41.951Z,8
2023-01-23T08:37:41.879Z,8
2023-01-23T08:39:41.964Z,8
2023-01-23T08:41:42.045Z,7
2023-01-23T08:43:42.171Z,9
2023-01-23T08:45:42.359Z,11
2023-01-23T08:47:42.366Z,11
2023-01-23T08:49:42.505Z,10
2023-01-23T08:51:42.527Z,7
2023-01-23T08:53:42.663Z,8
2023-01-23T08:55:42.752Z,9
2023-01-23T08:57:42.821Z,9
2023-01-23T08:59:42.887Z,10
2023-01-23T09:01:43.002Z,9
2023-01-23T09:03:43.098Z,6
2023-01-23T09:05:43.167Z,8
2023-01-23T09:07:43.389Z,9
2023-01-23T09:11:43.440Z,10
2023-01-23T09:13:43.572Z,9
2023-01-23T09:15:43.743Z,8
2023-01-23T09:17:43.718Z,10
2023-01-23T09:19:43.920Z,9
2023-01-23T09:21:44.013Z,8
2023-01-23T09:23:44.130Z,10
2023-01-23T09:25:44.202Z,10
2023-01-23T09:27:44.303Z,9
2023-01-23T09:29:44.388Z,10
2023-01-23T09:31:44.563Z,9
2023-01-23T09:33:44.614Z,10
2023-01-23T09:35:44.676Z,8
2023-01-23T09:37:44.751Z,11
2023-01-23T09:39:44.870Z,9
2023-01-23T09:41:44.955Z,8
2023-01-23T09:43:45.028Z,9
2023-01-23T09:45:45.137Z,9
2023-01-23T09:48:15.239Z,10
2023-01-23T09:50:15.335Z,10
2023-01-23T09:52:15.436Z,11
2023-01-23T09:54:15.584Z,12
2023-01-23T09:56:15.847Z,12
2023-01-23T09:58:15.753Z,12
2023-01-23T10:00:15.900Z,12
2023-01-23T10:02:16.004Z,11
2023-01-23T10:04:16.112Z,8
2023-01-23T10:06:16.196Z,8
2023-01-23T10:08:16.331Z,9
2023-01-23T10:10:16.441Z,9
2023-01-23T10:12:16.553Z,12
2023-01-23T10:16:16.806Z,10
2023-01-23T10:18:16.862Z,9
2023-01-23T10:20:16.929Z,10
2023-01-23T10:22:22.735Z,10
2023-01-23T10:24:17.171Z,10
2023-01-23T10:26:17.255Z,9
2023-01-23T10:28:17.360Z,8
2023-01-23T10:30:17.644Z,9
2023-01-23T10:32:17.601Z,9
2023-01-23T10:34:17.700Z,9
2023-01-23T10:36:23.548Z,9
2023-01-23T10:38:17.921Z,9
2023-01-23T10:40:18.338Z,10
2023-01-23T10:42:18.122Z,9
2023-01-23T10:44:18.213Z,12
2023-01-23T10:46:18.472Z,11
2023-01-23T10:48:18.409Z,11
2023-01-23T10:50:18.535Z,9
2023-01-23T10:52:20.127Z,10
2023-01-23T10:54:30.908Z,13
2023-01-23T10:56:18.827Z,17
2023-01-23T10:58:18.915Z,14
2023-01-23T11:00:19.030Z,11
2023-01-23T11:02:19.293Z,14
2023-01-23T11:04:19.277Z,15
2023-01-23T11:06:19.366Z,14
2023-01-23T11:08:19.472Z,15
2023-01-23T11:10:19.558Z,13
2023-01-23T11:12:19.660Z,15
2023-01-23T11:14:19.773Z,24
2023-01-23T11:16:19.985Z,15
2023-01-23T11:18:20.004Z,17
2023-01-23T11:20:20.106Z,14
2023-01-23T11:22:20.211Z,20
2023-01-23T11:24:24.848Z,17
2023-01-23T11:26:20.347Z,19
2023-01-23T11:28:20.650Z,16
2023-01-23T11:30:20.555Z,11
2023-01-23T11:32:20.828Z,13
2023-01-23T11:34:20.743Z,13
2023-01-23T11:36:20.814Z,11
2023-01-23T11:38:30.271Z,10
2023-01-23T11:40:21.033Z,11
2023-01-23T11:42:21.136Z,12
2023-01-23T11:44:22.656Z,13
2023-01-23T11:46:21.387Z,12
2023-01-23T11:48:21.454Z,11
2023-01-23T11:50:21.565Z,9
2023-01-23T11:52:21.636Z,9
2023-01-23T11:54:21.721Z,8
2023-01-23T11:56:21.823Z,8
2023-01-23T11:58:21.920Z,7
2023-01-23T12:00:22.470Z,8
2023-01-23T12:02:22.168Z,8
2023-01-23T12:04:22.180Z,9
2023-01-23T12:06:22.281Z,11
2023-01-23T12:08:22.365Z,14
2023-01-23T12:10:22.702Z,13
2023-01-23T12:12:22.558Z,10
2023-01-23T12:14:22.667Z,10
2023-01-23T12:16:22.848Z,9
2023-01-23T12:18:22.849Z,8
2023-01-23T12:20:23.316Z,7
2023-01-23T12:22:23.038Z,7
2023-01-23T12:24:23.122Z,7
2023-01-23T12:26:23.242Z,7
2023-01-23T12:28:23.321Z,7
2023-01-23T12:30:23.584Z,7
2023-01-23T12:32:23.545Z,6
2023-01-23T12:34:23.547Z,5
2023-01-23T12:36:23.639Z,6
2023-01-23T12:38:23.734Z,7
2023-01-23T12:40:24.150Z,6
2023-01-23T12:42:23.928Z,7
2023-01-23T12:44:24.033Z,7
2023-01-23T12:46:24.136Z,7
2023-01-23T12:48:24.196Z,5
2023-01-23T12:50:24.322Z,6
2023-01-23T12:52:24.388Z,6
2023-01-23T12:54:24.441Z,7
2023-01-23T12:56:24.547Z,8
2023-01-23T12:58:24.632Z,8
2023-01-23T13:00:24.747Z,9
2023-01-23T13:02:24.957Z,8
2023-01-23T13:04:25.020Z,6
2023-01-23T13:06:25.028Z,7
2023-01-23T13:08:25.294Z,7
2023-01-23T13:10:25.211Z,7
2023-01-23T13:12:25.267Z,6
2023-01-23T13:14:29.146Z,6
2023-01-23T13:16:25.502Z,7
2023-01-23T13:18:25.529Z,7
2023-01-23T13:20:25.600Z,7
2023-01-23T13:22:28.029Z,8
2023-01-23T13:24:25.769Z,14
2023-01-23T13:26:25.869Z,15
2023-01-23T13:28:27.699Z,16
2023-01-23T13:30:26.127Z,15
2023-01-23T13:32:26.247Z,13
2023-01-23T13:34:26.188Z,15
2023-01-23T13:36:26.282Z,16
2023-01-23T13:38:26.364Z,13
2023-01-23T13:40:26.466Z,11
2023-01-23T13:42:26.555Z,10
2023-01-23T13:44:35.730Z,12
2023-01-23T13:46:26.713Z,11
2023-01-23T14:20:58.316Z,10
2023-01-23T14:22:58.401Z,10
2023-01-23T14:24:58.572Z,12
2023-01-23T14:27:02.413Z,13
2023-01-23T14:28:58.742Z,13
2023-01-23T14:30:58.904Z,15
2023-01-23T14:32:58.933Z,14
2023-01-23T14:34:59.011Z,8
2023-01-23T14:36:59.152Z,8
2023-01-23T14:38:59.136Z,6
2023-01-23T14:40:59.250Z,7
2023-01-23T14:42:59.338Z,9
2023-01-23T14:44:59.487Z,6
2023-01-23T14:46:59.580Z,7
2023-01-23T14:48:59.664Z,7
2023-01-23T14:50:59.771Z,19
2023-01-23T14:52:59.911Z,43
2023-01-23T14:55:05.756Z,22
2023-01-23T14:59:00.223Z,46
2023-01-23T15:01:00.351Z,42
2023-01-23T15:03:00.585Z,28
2023-01-23T15:05:00.537Z,13
2023-01-23T15:07:00.665Z,10
2023-01-23T15:09:00.802Z,9
2023-01-23T15:11:00.859Z,9
2023-01-23T15:13:00.955Z,8
2023-01-23T15:15:01.056Z,8
2023-01-23T15:17:01.280Z,6
2023-01-23T15:19:01.284Z,7
2023-01-23T15:21:01.386Z,6
2023-01-23T15:23:01.491Z,7
2023-01-23T15:25:01.640Z,6
2023-01-23T15:27:01.716Z,6
2023-01-23T15:29:01.841Z,7
2023-01-23T15:31:02.011Z,8
2023-01-23T15:33:02.016Z,9
2023-01-23T15:35:02.162Z,8
2023-01-23T15:37:02.217Z,9
2023-01-23T15:39:02.350Z,11
2023-01-23T15:41:02.461Z,15
2023-01-23T15:43:02.544Z,12
2023-01-23T15:45:02.650Z,11
2023-01-23T15:47:02.732Z,8
2023-01-23T15:49:04.273Z,9
2023-01-23T15:51:02.960Z,9
2023-01-23T15:53:03.080Z,12
2023-01-23T15:55:03.179Z,9
2023-01-23T15:57:08.276Z,8
2023-01-23T15:59:03.359Z,9
2023-01-23T16:01:03.500Z,8
2023-01-23T16:03:03.610Z,9
2023-01-23T16:07:03.809Z,8
2023-01-23T16:09:05.770Z,9
2023-01-23T16:11:03.995Z,12
2023-01-23T16:13:04.081Z,13
2023-01-23T16:15:04.157Z,11
2023-01-23T16:17:15.912Z,13
2023-01-23T16:19:04.361Z,20
2023-01-23T16:21:04.449Z,19
2023-01-23T16:23:14.087Z,16
2023-01-23T16:25:04.640Z,12
2023-01-23T16:27:04.811Z,8
2023-01-23T16:29:13.556Z,9
2023-01-23T16:31:04.913Z,10
2023-01-23T16:33:05.050Z,10
2023-01-23T16:35:05.183Z,19
2023-01-23T16:37:05.224Z,13
2023-01-23T16:39:06.236Z,26
2023-01-23T16:41:05.447Z,21
2023-01-23T16:43:05.561Z,16
2023-01-23T16:45:05.598Z,21
2023-01-23T16:47:05.710Z,30
2023-01-23T16:49:05.810Z,22
2023-01-23T16:53:06.099Z,19
2023-01-23T16:55:06.179Z,14
2023-01-23T16:57:06.177Z,17
2023-01-23T16:59:06.344Z,12
2023-01-23T17:01:06.467Z,24
2023-01-23T17:03:06.497Z,19
2023-01-23T17:05:06.813Z,22
2023-01-23T17:07:06.684Z,14
2023-01-23T17:11:06.905Z,15
2023-01-23T17:13:06.973Z,22
2023-01-23T17:15:07.101Z,22
2023-01-23T17:17:07.312Z,20
2023-01-23T17:19:07.260Z,14
2023-01-23T17:21:07.365Z,14
2023-01-23T17:23:07.434Z,16
2023-01-23T17:25:07.523Z,15
2023-01-23T17:27:07.631Z,14
2023-01-23T17:29:07.710Z,13
2023-01-23T17:31:07.822Z,14
2023-01-23T17:33:07.914Z,20
2023-01-23T17:35:08.008Z,17
2023-01-23T17:37:08.102Z,14
2023-01-23T17:39:08.197Z,12
2023-01-23T17:41:08.300Z,12
2023-01-23T17:43:08.393Z,8
2023-01-23T17:45:08.472Z,8
2023-01-23T17:47:08.573Z,9
2023-01-23T17:49:08.648Z,9
2023-01-23T17:51:08.740Z,7
2023-01-23T17:53:08.843Z,9
2023-01-23T17:55:08.959Z,8
2023-01-23T17:57:09.048Z,7
2023-01-23T17:59:09.155Z,8
2023-01-23T18:01:09.242Z,8
2023-01-23T18:03:09.323Z,6
2023-01-23T18:05:09.454Z,7
2023-01-23T18:07:09.507Z,7
2023-01-23T18:09:09.623Z,7
2023-01-23T18:11:09.693Z,7
2023-01-23T18:13:09.772Z,7
2023-01-23T18:15:09.860Z,6
2023-01-23T18:17:09.935Z,7
2023-01-23T18:19:10.025Z,7
2023-01-23T18:21:10.149Z,9
2023-01-23T18:23:10.208Z,8
2023-01-23T18:25:10.275Z,8
2023-01-23T18:27:10.375Z,8
2023-01-23T18:29:10.467Z,10
2023-01-23T18:31:10.692Z,10
2023-01-23T18:33:10.649Z,7
2023-01-23T18:35:10.711Z,19
2023-01-23T18:37:10.822Z,23
2023-01-23T18:39:10.914Z,16
2023-01-23T18:41:11.000Z,22
2023-01-23T18:43:11.036Z,34
2023-01-23T18:45:11.132Z,26
2023-01-23T18:47:11.309Z,15
2023-01-23T18:49:13.409Z,14
2023-01-23T18:53:11.505Z,13
2023-01-23T18:55:11.588Z,11
2023-01-23T18:57:11.667Z,10
2023-01-23T18:59:12.894Z,10
2023-01-23T19:01:11.834Z,9
2023-01-23T19:03:11.913Z,10
2023-01-23T19:05:11.990Z,9
2023-01-23T19:07:12.072Z,9
2023-01-23T19:11:12.267Z,10
2023-01-23T19:13:12.349Z,12
2023-01-23T19:15:12.443Z,12
2023-01-23T19:17:12.521Z,11
2023-01-23T19:19:16.140Z,16
2023-01-23T19:21:12.710Z,12
2023-01-23T19:23:12.771Z,12
2023-01-23T19:25:12.865Z,16
2023-01-23T19:27:12.957Z,14
2023-01-23T19:29:21.409Z,11
2023-01-23T19:31:13.178Z,10
2023-01-23T19:33:13.230Z,12
2023-01-23T19:35:14.221Z,11
2023-01-23T19:37:13.418Z,11
2023-01-23T19:39:13.470Z,8
2023-01-23T19:43:43.741Z,9
2023-01-23T19:45:43.861Z,11
2023-01-23T19:47:43.979Z,8
2023-01-23T19:49:44.106Z,8
2023-01-23T19:51:44.213Z,9
2023-01-23T19:53:44.496Z,8
2023-01-23T19:55:44.448Z,8
2023-01-23T19:57:44.672Z,8
2023-01-23T19:59:44.704Z,8
2023-01-23T20:01:44.827Z,9
2023-01-23T20:03:45.032Z,9
2023-01-23T20:05:45.143Z,9
2023-01-23T20:07:45.164Z,9
2023-01-23T20:09:45.248Z,7
2023-01-23T20:13:45.448Z,7
2023-01-23T20:15:45.557Z,7
2023-01-23T20:17:45.656Z,6
2023-01-23T20:19:45.955Z,7
2023-01-23T20:21:47.777Z,7
2023-01-23T20:23:46.070Z,6
2023-01-23T20:25:46.131Z,5
2023-01-23T20:27:46.259Z,6
2023-01-23T20:29:46.369Z,6
2023-01-23T20:31:46.518Z,7
2023-01-23T20:33:46.607Z,7
2023-01-23T20:35:46.676Z,7
2023-01-23T20:37:46.815Z,7
2023-01-23T20:41:47.265Z,6
2023-01-23T20:43:47.193Z,6
2023-01-23T20:45:47.313Z,7
2023-01-23T20:47:47.374Z,6
2023-01-23T20:49:47.505Z,6
2023-01-23T20:51:47.614Z,7
2023-01-23T20:53:47.715Z,5
2023-01-23T20:55:47.825Z,6
2023-01-23T20:57:47.941Z,5
2023-01-23T20:59:48.051Z,7
2023-01-23T21:01:48.180Z,10
2023-01-23T21:03:48.408Z,12
2023-01-23T21:05:48.420Z,8
2023-01-23T21:07:48.500Z,6
2023-01-23T21:09:48.601Z,5
2023-01-23T21:11:48.742Z,7
2023-01-23T21:15:48.974Z,7
2023-01-23T21:17:49.053Z,7
2023-01-23T21:19:49.151Z,7
2023-01-23T21:21:49.303Z,6
2023-01-23T21:23:49.486Z,6
2023-01-23T21:25:49.521Z,6
2023-01-23T21:27:49.621Z,7
2023-01-23T21:29:49.735Z,7
2023-01-23T21:31:49.879Z,6
2023-01-23T21:33:49.930Z,5
2023-01-23T21:35:50.084Z,5
2023-01-23T21:37:50.184Z,5
2023-01-23T21:39:50.293Z,5
2023-01-23T21:41:50.396Z,5
2023-01-23T21:43:50.514Z,5
2023-01-23T21:45:50.604Z,5
2023-01-23T21:47:50.739Z,5
2023-01-23T21:49:50.814Z,5
2023-01-23T21:51:50.959Z,5
2023-01-23T21:53:51.240Z,6
2023-01-23T21:55:51.129Z,5
2023-01-23T21:57:51.240Z,5
2023-01-23T21:59:51.367Z,5
2023-01-23T22:01:51.562Z,5
2023-01-23T22:03:51.674Z,4
2023-01-23T22:05:51.712Z,4
2023-01-23T22:07:51.784Z,4
2023-01-23T22:09:51.920Z,4
2023-01-23T22:11:52.098Z,5
2023-01-23T22:13:52.141Z,5
2023-01-23T22:15:52.255Z,5
2023-01-23T22:17:52.332Z,4
2023-01-23T22:21:52.579Z,5
2023-01-23T22:23:52.692Z,5
2023-01-23T22:25:52.777Z,5
2023-01-23T22:27:52.861Z,4
2023-01-23T22:29:52.980Z,4
2023-01-23T22:31:53.215Z,4
2023-01-23T22:33:53.188Z,5
2023-01-23T22:35:53.322Z,5
2023-01-23T22:37:53.397Z,4
2023-01-23T22:39:53.528Z,4
2023-01-23T22:41:53.642Z,4
2023-01-23T22:43:53.710Z,3
2023-01-23T22:45:53.819Z,3
2023-01-23T22:47:53.867Z,4
2023-01-23T22:49:53.974Z,4
2023-01-23T22:51:54.094Z,4
2023-01-23T22:53:54.167Z,4
2023-01-23T22:55:54.263Z,4
2023-01-23T22:57:54.408Z,4
2023-01-23T22:59:54.523Z,4
2023-01-23T23:01:54.589Z,5
2023-01-23T23:03:54.776Z,5
2023-01-23T23:05:54.834Z,4
2023-01-23T23:07:54.905Z,4
2023-01-23T23:09:55.128Z,4
2023-01-23T23:11:55.146Z,5
2023-01-23T23:13:55.211Z,5
2023-01-23T23:15:55.403Z,5
2023-01-23T23:17:55.425Z,5
2023-01-23T23:19:55.508Z,5
2023-01-23T23:21:55.617Z,5
2023-01-23T23:23:55.721Z,4
2023-01-23T23:25:55.894Z,4
2023-01-23T23:27:55.890Z,4
2023-01-23T23:31:56.230Z,5
2023-01-23T23:33:56.203Z,5
2023-01-23T23:35:56.344Z,4
2023-01-23T23:37:56.439Z,4
2023-01-23T23:39:56.508Z,4
2023-01-23T23:41:56.596Z,5
2023-01-23T23:43:56.720Z,6
2023-01-23T23:45:56.910Z,7
2023-01-23T23:47:56.891Z,6
2023-01-23T23:49:56.961Z,5
2023-01-23T23:51:57.081Z,5
2023-01-23T23:53:57.166Z,4
2023-01-23T23:55:57.337Z,5
2023-01-23T23:59:57.517Z,5
